sensor_id;sensor_type;location;lat;lon;timestamp;P1;durP1;ratioP1;P2;durP2;ratioP2
47764;SDS011;33529;49.242;8.670;2022-11-12T00:01:11;6.45;;;3.30;;
47764;SDS011;33529;49.242;8.670;2022-11-12T00:03:56;7.18;;;3.83;;
47764;SDS011;33529;49.242;8.670;2022-11-12T00:06:41;6.05;;;3.35;;
47764;SDS011;33529;49.242;8.670;2022-11-12T00:09:27;5.55;;;3.85;;
47764;SDS011;33529;49.242;8.670;2022-11-12T00:12:12;6.13;;;3.47;;
47764;SDS011;33529;49.242;8.670;2022-11-12T00:14:57;6.22;;;3.70;;
47764;SDS011;33529;49.242;8.670;2022-11-12T00:17:43;6.60;;;3.70;;
47764;SDS011;33529;49.242;8.670;2022-11-12T00:20:29;6.80;;;4.45;;
47764;SDS011;33529;49.242;8.670;2022-11-12T00:23:14;7.00;;;4.32;;
47764;SDS011;33529;49.242;8.670;2022-11-12T00:26:00;5.97;;;4.07;;
47764;SDS011;33529;49.242;8.670;2022-11-12T00:28:45;5.80;;;3.67;;
47764;SDS011;33529;49.242;8.670;2022-11-12T00:31:31;6.85;;;3.45;;
47764;SDS011;33529;49.242;8.670;2022-11-12T00:34:18;8.32;;;3.90;;
47764;SDS011;33529;49.242;8.670;2022-11-12T00:37:03;5.78;;;3.95;;
47764;SDS011;33529;49.242;8.670;2022-11-12T00:39:49;6.38;;;4.00;;
47764;SDS011;33529;49.242;8.670;2022-11-12T00:42:35;5.18;;;3.90;;
47764;SDS011;33529;49.242;8.670;2022-11-12T00:45:20;6.22;;;3.38;;
47764;SDS011;33529;49.242;8.670;2022-11-12T00:48:06;6.03;;;3.85;;
47764;SDS011;33529;49.242;8.670;2022-11-12T00:50:57;7.93;;;4.25;;
47764;SDS011;33529;49.242;8.670;2022-11-12T00:53:46;5.28;;;3.30;;
47764;SDS011;33529;49.242;8.670;2022-11-12T00:56:32;7.15;;;4.00;;
47764;SDS011;33529;49.242;8.670;2022-11-12T00:59:19;5.60;;;3.50;;
47764;SDS011;33529;49.242;8.670;2022-11-12T01:02:05;7.18;;;4.05;;
47764;SDS011;33529;49.242;8.670;2022-11-12T01:04:51;5.68;;;3.20;;
47764;SDS011;33529;49.242;8.670;2022-11-12T01:07:36;5.60;;;3.30;;
47764;SDS011;33529;49.242;8.670;2022-11-12T01:10:22;5.00;;;3.05;;
47764;SDS011;33529;49.242;8.670;2022-11-12T01:13:07;4.95;;;2.95;;
47764;SDS011;33529;49.242;8.670;2022-11-12T01:15:52;5.43;;;3.08;;
47764;SDS011;33529;49.242;8.670;2022-11-12T01:18:37;4.43;;;2.90;;
47764;SDS011;33529;49.242;8.670;2022-11-12T01:21:23;4.95;;;2.95;;
47764;SDS011;33529;49.242;8.670;2022-11-12T01:24:10;4.15;;;2.85;;
47764;SDS011;33529;49.242;8.670;2022-11-12T01:26:55;4.43;;;2.80;;
47764;SDS011;33529;49.242;8.670;2022-11-12T01:29:41;4.75;;;2.97;;
47764;SDS011;33529;49.242;8.670;2022-11-12T01:32:26;4.25;;;3.10;;
47764;SDS011;33529;49.242;8.670;2022-11-12T01:35:12;4.90;;;3.22;;
47764;SDS011;33529;49.242;8.670;2022-11-12T01:37:57;5.68;;;3.13;;
47764;SDS011;33529;49.242;8.670;2022-11-12T01:40:43;4.22;;;2.65;;
47764;SDS011;33529;49.242;8.670;2022-11-12T01:43:29;5.50;;;3.00;;
47764;SDS011;33529;49.242;8.670;2022-11-12T01:46:19;4.97;;;3.22;;
47764;SDS011;33529;49.242;8.670;2022-11-12T01:49:11;5.18;;;3.38;;
47764;SDS011;33529;49.242;8.670;2022-11-12T01:52:05;4.53;;;2.97;;
47764;SDS011;33529;49.242;8.670;2022-11-12T01:55:16;6.97;;;3.15;;
47764;SDS011;33529;49.242;8.670;2022-11-12T01:58:12;4.60;;;3.25;;
47764;SDS011;33529;49.242;8.670;2022-11-12T02:01:02;6.15;;;3.17;;
47764;SDS011;33529;49.242;8.670;2022-11-12T02:10:03;6.07;;;3.40;;
47764;SDS011;33529;49.242;8.670;2022-11-12T02:12:49;5.88;;;3.88;;
47764;SDS011;33529;49.242;8.670;2022-11-12T02:15:54;5.28;;;3.30;;
47764;SDS011;33529;49.242;8.670;2022-11-12T02:18:40;5.65;;;3.25;;
47764;SDS011;33529;49.242;8.670;2022-11-12T02:21:25;5.30;;;3.28;;
47764;SDS011;33529;49.242;8.670;2022-11-12T02:26:58;5.90;;;3.85;;
47764;SDS011;33529;49.242;8.670;2022-11-12T02:29:44;5.80;;;3.08;;
47764;SDS011;33529;49.242;8.670;2022-11-12T02:32:32;5.15;;;3.17;;
47764;SDS011;33529;49.242;8.670;2022-11-12T02:35:18;4.68;;;3.25;;
47764;SDS011;33529;49.242;8.670;2022-11-12T02:38:03;5.82;;;3.42;;
47764;SDS011;33529;49.242;8.670;2022-11-12T02:40:50;5.93;;;3.33;;
47764;SDS011;33529;49.242;8.670;2022-11-12T02:43:35;5.68;;;3.30;;
47764;SDS011;33529;49.242;8.670;2022-11-12T02:46:21;4.43;;;2.95;;
47764;SDS011;33529;49.242;8.670;2022-11-12T02:49:07;6.07;;;3.75;;
47764;SDS011;33529;49.242;8.670;2022-11-12T02:51:52;5.10;;;3.25;;
47764;SDS011;33529;49.242;8.670;2022-11-12T02:54:37;4.13;;;3.13;;
47764;SDS011;33529;49.242;8.670;2022-11-12T02:57:23;5.78;;;3.40;;
47764;SDS011;33529;49.242;8.670;2022-11-12T03:00:09;5.05;;;3.45;;
47764;SDS011;33529;49.242;8.670;2022-11-12T03:02:56;5.88;;;3.25;;
47764;SDS011;33529;49.242;8.670;2022-11-12T03:05:43;5.93;;;2.85;;
47764;SDS011;33529;49.242;8.670;2022-11-12T03:08:29;6.03;;;3.70;;
47764;SDS011;33529;49.242;8.670;2022-11-12T03:11:15;4.55;;;3.53;;
47764;SDS011;33529;49.242;8.670;2022-11-12T03:14:01;4.75;;;3.10;;
47764;SDS011;33529;49.242;8.670;2022-11-12T03:16:47;5.60;;;3.78;;
47764;SDS011;33529;49.242;8.670;2022-11-12T03:19:32;5.40;;;3.35;;
47764;SDS011;33529;49.242;8.670;2022-11-12T03:22:18;4.95;;;3.00;;
47764;SDS011;33529;49.242;8.670;2022-11-12T03:25:03;6.03;;;3.63;;
47764;SDS011;33529;49.242;8.670;2022-11-12T03:28:23;4.65;;;3.03;;
47764;SDS011;33529;49.242;8.670;2022-11-12T03:31:02;5.72;;;3.20;;
47764;SDS011;33529;49.242;8.670;2022-11-12T03:33:47;5.65;;;3.53;;
47764;SDS011;33529;49.242;8.670;2022-11-12T03:36:32;5.38;;;3.20;;
47764;SDS011;33529;49.242;8.670;2022-11-12T03:39:18;4.80;;;3.08;;
47764;SDS011;33529;49.242;8.670;2022-11-12T03:42:03;4.95;;;3.08;;
47764;SDS011;33529;49.242;8.670;2022-11-12T03:44:49;6.45;;;3.40;;
47764;SDS011;33529;49.242;8.670;2022-11-12T03:47:34;4.75;;;3.28;;
47764;SDS011;33529;49.242;8.670;2022-11-12T03:50:20;5.97;;;3.42;;
47764;SDS011;33529;49.242;8.670;2022-11-12T03:53:07;6.25;;;3.25;;
47764;SDS011;33529;49.242;8.670;2022-11-12T03:55:53;4.93;;;3.55;;
47764;SDS011;33529;49.242;8.670;2022-11-12T03:58:39;5.40;;;3.65;;
47764;SDS011;33529;49.242;8.670;2022-11-12T04:01:24;6.28;;;3.70;;
47764;SDS011;33529;49.242;8.670;2022-11-12T04:04:10;7.28;;;4.20;;
47764;SDS011;33529;49.242;8.670;2022-11-12T04:06:55;5.75;;;4.03;;
47764;SDS011;33529;49.242;8.670;2022-11-12T04:09:59;6.05;;;3.33;;
47764;SDS011;33529;49.242;8.670;2022-11-12T04:12:45;5.38;;;3.15;;
47764;SDS011;33529;49.242;8.670;2022-11-12T04:15:49;5.20;;;3.58;;
47764;SDS011;33529;49.242;8.670;2022-11-12T04:18:55;5.20;;;3.40;;
47764;SDS011;33529;49.242;8.670;2022-11-12T04:22:07;6.20;;;4.40;;
47764;SDS011;33529;49.242;8.670;2022-11-12T04:24:54;5.18;;;3.35;;
47764;SDS011;33529;49.242;8.670;2022-11-12T04:27:59;5.50;;;3.40;;
47764;SDS011;33529;49.242;8.670;2022-11-12T04:30:44;5.57;;;3.67;;
47764;SDS011;33529;49.242;8.670;2022-11-12T04:33:29;5.82;;;3.88;;
47764;SDS011;33529;49.242;8.670;2022-11-12T04:36:14;4.93;;;2.97;;
47764;SDS011;33529;49.242;8.670;2022-11-12T04:39:00;4.63;;;3.47;;
47764;SDS011;33529;49.242;8.670;2022-11-12T04:41:45;5.53;;;3.53;;
47764;SDS011;33529;49.242;8.670;2022-11-12T04:44:50;7.75;;;3.67;;
47764;SDS011;33529;49.242;8.670;2022-11-12T04:47:48;5.50;;;3.70;;
47764;SDS011;33529;49.242;8.670;2022-11-12T04:50:33;4.88;;;3.08;;
47764;SDS011;33529;49.242;8.670;2022-11-12T04:53:19;4.53;;;3.08;;
47764;SDS011;33529;49.242;8.670;2022-11-12T04:56:05;4.32;;;2.80;;
47764;SDS011;33529;49.242;8.670;2022-11-12T04:58:51;5.30;;;3.60;;
47764;SDS011;33529;49.242;8.670;2022-11-12T05:01:36;5.32;;;3.45;;
47764;SDS011;33529;49.242;8.670;2022-11-12T05:04:21;4.88;;;2.78;;
47764;SDS011;33529;49.242;8.670;2022-11-12T05:07:06;5.43;;;3.08;;
47764;SDS011;33529;49.242;8.670;2022-11-12T05:09:52;4.80;;;3.42;;
47764;SDS011;33529;49.242;8.670;2022-11-12T05:12:38;5.05;;;2.85;;
47764;SDS011;33529;49.242;8.670;2022-11-12T05:15:23;4.70;;;3.22;;
47764;SDS011;33529;49.242;8.670;2022-11-12T05:18:09;4.43;;;2.60;;
47764;SDS011;33529;49.242;8.670;2022-11-12T05:20:54;5.47;;;3.53;;
47764;SDS011;33529;49.242;8.670;2022-11-12T05:23:40;6.03;;;3.38;;
47764;SDS011;33529;49.242;8.670;2022-11-12T05:26:25;4.50;;;3.30;;
47764;SDS011;33529;49.242;8.670;2022-11-12T05:29:11;6.68;;;3.67;;
47764;SDS011;33529;49.242;8.670;2022-11-12T05:31:56;5.30;;;3.83;;
47764;SDS011;33529;49.242;8.670;2022-11-12T05:34:42;6.30;;;3.55;;
47764;SDS011;33529;49.242;8.670;2022-11-12T05:37:28;6.22;;;3.90;;
47764;SDS011;33529;49.242;8.670;2022-11-12T05:40:14;6.43;;;4.20;;
47764;SDS011;33529;49.242;8.670;2022-11-12T05:42:59;5.80;;;3.63;;
47764;SDS011;33529;49.242;8.670;2022-11-12T05:45:45;5.55;;;3.53;;
47764;SDS011;33529;49.242;8.670;2022-11-12T05:48:30;5.65;;;3.58;;
47764;SDS011;33529;49.242;8.670;2022-11-12T05:51:16;5.40;;;3.95;;
47764;SDS011;33529;49.242;8.670;2022-11-12T05:54:01;6.25;;;3.65;;
47764;SDS011;33529;49.242;8.670;2022-11-12T05:56:47;6.78;;;3.15;;
47764;SDS011;33529;49.242;8.670;2022-11-12T05:59:32;6.47;;;3.58;;
47764;SDS011;33529;49.242;8.670;2022-11-12T06:02:17;6.63;;;3.92;;
47764;SDS011;33529;49.242;8.670;2022-11-12T06:05:03;5.80;;;3.35;;
47764;SDS011;33529;49.242;8.670;2022-11-12T06:07:49;4.93;;;3.38;;
47764;SDS011;33529;49.242;8.670;2022-11-12T06:10:34;5.88;;;3.42;;
47764;SDS011;33529;49.242;8.670;2022-11-12T06:13:20;5.57;;;3.47;;
47764;SDS011;33529;49.242;8.670;2022-11-12T06:16:07;4.85;;;3.70;;
47764;SDS011;33529;49.242;8.670;2022-11-12T06:18:53;4.03;;;3.28;;
47764;SDS011;33529;49.242;8.670;2022-11-12T06:21:38;6.18;;;3.58;;
47764;SDS011;33529;49.242;8.670;2022-11-12T06:24:24;5.93;;;4.45;;
47764;SDS011;33529;49.242;8.670;2022-11-12T06:27:18;6.20;;;3.85;;
47764;SDS011;33529;49.242;8.670;2022-11-12T06:30:04;7.47;;;3.67;;
47764;SDS011;33529;49.242;8.670;2022-11-12T06:32:50;5.78;;;3.85;;
47764;SDS011;33529;49.242;8.670;2022-11-12T06:35:36;5.15;;;3.88;;
47764;SDS011;33529;49.242;8.670;2022-11-12T06:38:27;5.90;;;4.05;;
47764;SDS011;33529;49.242;8.670;2022-11-12T06:41:13;5.72;;;3.53;;
47764;SDS011;33529;49.242;8.670;2022-11-12T06:43:59;6.22;;;3.92;;
47764;SDS011;33529;49.242;8.670;2022-11-12T06:46:46;5.50;;;3.78;;
47764;SDS011;33529;49.242;8.670;2022-11-12T06:49:32;5.38;;;3.65;;
47764;SDS011;33529;49.242;8.670;2022-11-12T06:52:17;6.18;;;4.07;;
47764;SDS011;33529;49.242;8.670;2022-11-12T06:55:02;5.25;;;3.53;;
47764;SDS011;33529;49.242;8.670;2022-11-12T06:57:51;5.40;;;3.50;;
47764;SDS011;33529;49.242;8.670;2022-11-12T07:00:37;7.63;;;4.55;;
47764;SDS011;33529;49.242;8.670;2022-11-12T07:03:23;6.43;;;4.88;;
47764;SDS011;33529;49.242;8.670;2022-11-12T07:06:09;6.70;;;4.82;;
47764;SDS011;33529;49.242;8.670;2022-11-12T07:08:56;6.45;;;3.83;;
47764;SDS011;33529;49.242;8.670;2022-11-12T07:11:41;6.10;;;4.00;;
47764;SDS011;33529;49.242;8.670;2022-11-12T07:14:27;7.25;;;3.60;;
47764;SDS011;33529;49.242;8.670;2022-11-12T07:17:13;5.45;;;3.78;;
47764;SDS011;33529;49.242;8.670;2022-11-12T07:19:58;6.45;;;4.70;;
47764;SDS011;33529;49.242;8.670;2022-11-12T07:22:48;6.68;;;4.60;;
47764;SDS011;33529;49.242;8.670;2022-11-12T07:25:33;6.55;;;3.58;;
47764;SDS011;33529;49.242;8.670;2022-11-12T07:28:19;5.72;;;3.95;;
47764;SDS011;33529;49.242;8.670;2022-11-12T07:31:06;5.80;;;3.75;;
47764;SDS011;33529;49.242;8.670;2022-11-12T07:33:53;8.43;;;4.78;;
47764;SDS011;33529;49.242;8.670;2022-11-12T07:36:39;6.07;;;4.28;;
47764;SDS011;33529;49.242;8.670;2022-11-12T07:39:24;6.75;;;4.63;;
47764;SDS011;33529;49.242;8.670;2022-11-12T07:42:09;7.70;;;5.18;;
47764;SDS011;33529;49.242;8.670;2022-11-12T07:44:55;8.02;;;5.18;;
47764;SDS011;33529;49.242;8.670;2022-11-12T07:47:41;6.72;;;4.28;;
47764;SDS011;33529;49.242;8.670;2022-11-12T07:50:26;5.82;;;3.90;;
47764;SDS011;33529;49.242;8.670;2022-11-12T07:53:11;6.30;;;4.45;;
47764;SDS011;33529;49.242;8.670;2022-11-12T07:55:58;7.32;;;4.25;;
47764;SDS011;33529;49.242;8.670;2022-11-12T07:58:45;6.50;;;4.70;;
47764;SDS011;33529;49.242;8.670;2022-11-12T08:01:33;6.78;;;4.68;;
47764;SDS011;33529;49.242;8.670;2022-11-12T08:04:20;7.43;;;4.50;;
47764;SDS011;33529;49.242;8.670;2022-11-12T08:07:05;5.78;;;4.30;;
47764;SDS011;33529;49.242;8.670;2022-11-12T08:09:51;6.40;;;3.92;;
47764;SDS011;33529;49.242;8.670;2022-11-12T08:12:37;5.90;;;3.85;;
47764;SDS011;33529;49.242;8.670;2022-11-12T08:15:22;6.32;;;4.32;;
47764;SDS011;33529;49.242;8.670;2022-11-12T08:18:08;5.75;;;3.67;;
47764;SDS011;33529;49.242;8.670;2022-11-12T08:21:03;6.53;;;3.53;;
47764;SDS011;33529;49.242;8.670;2022-11-12T08:23:50;5.40;;;3.30;;
47764;SDS011;33529;49.242;8.670;2022-11-12T08:26:36;5.18;;;3.72;;
47764;SDS011;33529;49.242;8.670;2022-11-12T08:29:21;5.55;;;3.45;;
47764;SDS011;33529;49.242;8.670;2022-11-12T08:32:07;4.80;;;3.80;;
47764;SDS011;33529;49.242;8.670;2022-11-12T08:34:52;5.80;;;3.60;;
47764;SDS011;33529;49.242;8.670;2022-11-12T08:37:37;4.68;;;3.42;;
47764;SDS011;33529;49.242;8.670;2022-11-12T08:40:23;6.53;;;4.07;;
47764;SDS011;33529;49.242;8.670;2022-11-12T08:43:08;5.35;;;3.53;;
47764;SDS011;33529;49.242;8.670;2022-11-12T08:45:56;5.03;;;3.45;;
47764;SDS011;33529;49.242;8.670;2022-11-12T08:48:43;5.57;;;3.40;;
47764;SDS011;33529;49.242;8.670;2022-11-12T08:51:28;5.10;;;4.10;;
47764;SDS011;33529;49.242;8.670;2022-11-12T08:54:14;4.57;;;3.50;;
47764;SDS011;33529;49.242;8.670;2022-11-12T08:56:59;5.55;;;3.55;;
47764;SDS011;33529;49.242;8.670;2022-11-12T08:59:45;4.57;;;3.20;;
47764;SDS011;33529;49.242;8.670;2022-11-12T09:02:30;5.90;;;3.70;;
47764;SDS011;33529;49.242;8.670;2022-11-12T09:05:16;4.72;;;3.45;;
47764;SDS011;33529;49.242;8.670;2022-11-12T09:08:03;5.88;;;3.58;;
47764;SDS011;33529;49.242;8.670;2022-11-12T09:10:56;4.10;;;3.20;;
47764;SDS011;33529;49.242;8.670;2022-11-12T09:13:43;4.50;;;3.40;;
47764;SDS011;33529;49.242;8.670;2022-11-12T09:16:28;6.45;;;3.78;;
47764;SDS011;33529;49.242;8.670;2022-11-12T09:19:14;5.32;;;3.20;;
47764;SDS011;33529;49.242;8.670;2022-11-12T09:21:59;5.20;;;3.05;;
47764;SDS011;33529;49.242;8.670;2022-11-12T09:24:44;6.25;;;3.53;;
47764;SDS011;33529;49.242;8.670;2022-11-12T09:27:30;4.20;;;3.15;;
47764;SDS011;33529;49.242;8.670;2022-11-12T09:30:16;4.25;;;3.08;;
47764;SDS011;33529;49.242;8.670;2022-11-12T09:33:01;3.55;;;2.72;;
47764;SDS011;33529;49.242;8.670;2022-11-12T09:35:47;5.85;;;3.70;;
47764;SDS011;33529;49.242;8.670;2022-11-12T09:38:33;6.00;;;3.50;;
47764;SDS011;33529;49.242;8.670;2022-11-12T09:41:23;5.30;;;3.42;;
47764;SDS011;33529;49.242;8.670;2022-11-12T09:44:18;4.93;;;2.72;;
47764;SDS011;33529;49.242;8.670;2022-11-12T09:47:17;5.38;;;2.75;;
47764;SDS011;33529;49.242;8.670;2022-11-12T09:50:24;3.63;;;2.78;;
47764;SDS011;33529;49.242;8.670;2022-11-12T09:53:14;4.13;;;2.70;;
47764;SDS011;33529;49.242;8.670;2022-11-12T09:56:05;3.92;;;2.78;;
47764;SDS011;33529;49.242;8.670;2022-11-12T09:58:54;4.00;;;2.45;;
47764;SDS011;33529;49.242;8.670;2022-11-12T10:07:55;4.03;;;3.10;;
47764;SDS011;33529;49.242;8.670;2022-11-12T10:11:06;5.38;;;2.70;;
47764;SDS011;33529;49.242;8.670;2022-11-12T10:24:13;4.10;;;2.70;;
47764;SDS011;33529;49.242;8.670;2022-11-12T10:26:58;6.13;;;3.83;;
47764;SDS011;33529;49.242;8.670;2022-11-12T10:29:52;7.22;;;4.50;;
47764;SDS011;33529;49.242;8.670;2022-11-12T10:32:44;6.35;;;4.25;;
47764;SDS011;33529;49.242;8.670;2022-11-12T10:35:31;7.25;;;4.22;;
47764;SDS011;33529;49.242;8.670;2022-11-12T10:38:17;6.43;;;4.43;;
47764;SDS011;33529;49.242;8.670;2022-11-12T10:44:12;3.80;;;3.00;;
47764;SDS011;33529;49.242;8.670;2022-11-12T10:50:14;5.25;;;3.90;;
47764;SDS011;33529;49.242;8.670;2022-11-12T10:53:12;6.50;;;4.13;;
47764;SDS011;33529;49.242;8.670;2022-11-12T10:56:25;6.03;;;3.65;;
47764;SDS011;33529;49.242;8.670;2022-11-12T10:59:18;6.55;;;4.07;;
47764;SDS011;33529;49.242;8.670;2022-11-12T11:02:13;6.50;;;3.63;;
47764;SDS011;33529;49.242;8.670;2022-11-12T11:05:17;7.10;;;4.78;;
47764;SDS011;33529;49.242;8.670;2022-11-12T11:08:14;8.05;;;4.82;;
47764;SDS011;33529;49.242;8.670;2022-11-12T11:17:14;6.68;;;4.47;;
47764;SDS011;33529;49.242;8.670;2022-11-12T11:20:03;7.80;;;4.65;;
47764;SDS011;33529;49.242;8.670;2022-11-12T11:22:55;5.97;;;3.97;;
47764;SDS011;33529;49.242;8.670;2022-11-12T11:25:43;6.47;;;4.25;;
47764;SDS011;33529;49.242;8.670;2022-11-12T11:28:36;7.00;;;4.20;;
47764;SDS011;33529;49.242;8.670;2022-11-12T11:31:39;7.05;;;4.32;;
47764;SDS011;33529;49.242;8.670;2022-11-12T11:34:42;7.45;;;4.80;;
47764;SDS011;33529;49.242;8.670;2022-11-12T11:43:49;7.28;;;4.03;;
47764;SDS011;33529;49.242;8.670;2022-11-12T11:50:10;6.88;;;3.85;;
47764;SDS011;33529;49.242;8.670;2022-11-12T11:53:18;7.47;;;4.22;;
47764;SDS011;33529;49.242;8.670;2022-11-12T11:56:15;7.53;;;4.90;;
47764;SDS011;33529;49.242;8.670;2022-11-12T11:59:12;8.00;;;4.95;;
47764;SDS011;33529;49.242;8.670;2022-11-12T12:10:52;7.00;;;4.32;;
47764;SDS011;33529;49.242;8.670;2022-11-12T12:14:05;7.15;;;5.07;;
47764;SDS011;33529;49.242;8.670;2022-11-12T12:23:36;5.97;;;4.20;;
47764;SDS011;33529;49.242;8.670;2022-11-12T12:26:34;6.90;;;4.65;;
47764;SDS011;33529;49.242;8.670;2022-11-12T12:29:28;6.78;;;3.72;;
47764;SDS011;33529;49.242;8.670;2022-11-12T12:32:20;6.55;;;4.78;;
47764;SDS011;33529;49.242;8.670;2022-11-12T12:41:26;7.00;;;4.40;;
47764;SDS011;33529;49.242;8.670;2022-11-12T12:44:13;6.28;;;4.40;;
47764;SDS011;33529;49.242;8.670;2022-11-12T12:47:00;7.22;;;4.70;;
47764;SDS011;33529;49.242;8.670;2022-11-12T12:49:47;7.25;;;4.57;;
47764;SDS011;33529;49.242;8.670;2022-11-12T12:56:04;7.90;;;5.05;;
47764;SDS011;33529;49.242;8.670;2022-11-12T12:58:51;8.23;;;4.95;;
47764;SDS011;33529;49.242;8.670;2022-11-12T13:01:36;7.45;;;5.13;;
47764;SDS011;33529;49.242;8.670;2022-11-12T13:07:44;8.60;;;5.30;;
47764;SDS011;33529;49.242;8.670;2022-11-12T13:13:29;8.10;;;4.68;;
47764;SDS011;33529;49.242;8.670;2022-11-12T13:19:45;8.55;;;4.55;;
47764;SDS011;33529;49.242;8.670;2022-11-12T13:25:29;7.50;;;4.90;;
47764;SDS011;33529;49.242;8.670;2022-11-12T13:28:15;7.95;;;5.50;;
47764;SDS011;33529;49.242;8.670;2022-11-12T13:31:01;10.18;;;5.47;;
47764;SDS011;33529;49.242;8.670;2022-11-12T13:33:48;7.35;;;5.20;;
47764;SDS011;33529;49.242;8.670;2022-11-12T13:36:33;9.30;;;4.72;;
47764;SDS011;33529;49.242;8.670;2022-11-12T13:39:20;11.13;;;5.45;;
47764;SDS011;33529;49.242;8.670;2022-11-12T13:42:14;9.63;;;5.80;;
47764;SDS011;33529;49.242;8.670;2022-11-12T13:45:21;8.10;;;5.35;;
47764;SDS011;33529;49.242;8.670;2022-11-12T13:48:13;10.27;;;6.00;;
47764;SDS011;33529;49.242;8.670;2022-11-12T13:54:28;7.15;;;5.15;;
47764;SDS011;33529;49.242;8.670;2022-11-12T14:00:07;9.00;;;5.28;;
47764;SDS011;33529;49.242;8.670;2022-11-12T14:02:54;9.25;;;6.07;;
47764;SDS011;33529;49.242;8.670;2022-11-12T14:05:45;9.77;;;6.22;;
47764;SDS011;33529;49.242;8.670;2022-11-12T14:08:38;13.00;;;7.90;;
47764;SDS011;33529;49.242;8.670;2022-11-12T14:11:38;13.98;;;8.35;;
47764;SDS011;33529;49.242;8.670;2022-11-12T14:20:45;16.42;;;8.77;;
47764;SDS011;33529;49.242;8.670;2022-11-12T14:23:30;14.60;;;8.18;;
47764;SDS011;33529;49.242;8.670;2022-11-12T14:29:25;12.60;;;8.65;;
47764;SDS011;33529;49.242;8.670;2022-11-12T14:32:18;15.93;;;8.27;;
47764;SDS011;33529;49.242;8.670;2022-11-12T14:35:16;15.52;;;9.68;;
47764;SDS011;33529;49.242;8.670;2022-11-12T14:44:03;11.18;;;7.25;;
47764;SDS011;33529;49.242;8.670;2022-11-12T14:46:57;13.82;;;8.10;;
47764;SDS011;33529;49.242;8.670;2022-11-12T14:49:44;12.88;;;6.72;;
47764;SDS011;33529;49.242;8.670;2022-11-12T14:52:38;13.05;;;7.28;;
47764;SDS011;33529;49.242;8.670;2022-11-12T14:55:28;14.02;;;8.10;;
47764;SDS011;33529;49.242;8.670;2022-11-12T14:58:21;13.00;;;7.47;;
47764;SDS011;33529;49.242;8.670;2022-11-12T15:01:18;12.60;;;7.72;;
47764;SDS011;33529;49.242;8.670;2022-11-12T15:04:38;13.32;;;7.93;;
47764;SDS011;33529;49.242;8.670;2022-11-12T15:07:30;12.73;;;6.82;;
47764;SDS011;33529;49.242;8.670;2022-11-12T15:10:32;12.85;;;7.57;;
47764;SDS011;33529;49.242;8.670;2022-11-12T15:13:18;13.77;;;7.95;;
47764;SDS011;33529;49.242;8.670;2022-11-12T15:16:06;13.73;;;7.90;;
47764;SDS011;33529;49.242;8.670;2022-11-12T15:19:36;15.35;;;8.65;;
47764;SDS011;33529;49.242;8.670;2022-11-12T15:22:15;12.23;;;7.72;;
47764;SDS011;33529;49.242;8.670;2022-11-12T15:25:18;14.65;;;7.53;;
47764;SDS011;33529;49.242;8.670;2022-11-12T15:28:10;10.93;;;7.53;;
47764;SDS011;33529;49.242;8.670;2022-11-12T15:37:21;14.52;;;6.97;;
47764;SDS011;33529;49.242;8.670;2022-11-12T15:40:20;14.13;;;7.28;;
47764;SDS011;33529;49.242;8.670;2022-11-12T15:43:12;13.55;;;6.90;;
47764;SDS011;33529;49.242;8.670;2022-11-12T15:46:00;15.75;;;8.30;;
47764;SDS011;33529;49.242;8.670;2022-11-12T15:48:46;12.43;;;7.30;;
47764;SDS011;33529;49.242;8.670;2022-11-12T15:51:39;15.40;;;7.55;;
47764;SDS011;33529;49.242;8.670;2022-11-12T15:54:25;11.80;;;6.28;;
47764;SDS011;33529;49.242;8.670;2022-11-12T15:57:20;14.10;;;7.53;;
47764;SDS011;33529;49.242;8.670;2022-11-12T16:03:13;16.42;;;7.05;;
47764;SDS011;33529;49.242;8.670;2022-11-12T16:06:03;12.57;;;7.25;;
47764;SDS011;33529;49.242;8.670;2022-11-12T16:08:53;12.00;;;7.05;;
47764;SDS011;33529;49.242;8.670;2022-11-12T16:11:38;12.68;;;8.02;;
47764;SDS011;33529;49.242;8.670;2022-11-12T16:14:24;14.82;;;7.72;;
47764;SDS011;33529;49.242;8.670;2022-11-12T16:17:10;18.20;;;8.95;;
47764;SDS011;33529;49.242;8.670;2022-11-12T16:19:58;13.68;;;6.88;;
47764;SDS011;33529;49.242;8.670;2022-11-12T16:22:44;13.45;;;7.78;;
47764;SDS011;33529;49.242;8.670;2022-11-12T16:25:30;13.43;;;7.30;;
47764;SDS011;33529;49.242;8.670;2022-11-12T16:28:18;12.38;;;7.25;;
47764;SDS011;33529;49.242;8.670;2022-11-12T16:31:03;16.58;;;8.55;;
47764;SDS011;33529;49.242;8.670;2022-11-12T16:33:49;13.50;;;6.68;;
47764;SDS011;33529;49.242;8.670;2022-11-12T16:36:34;12.00;;;6.40;;
47764;SDS011;33529;49.242;8.670;2022-11-12T16:39:20;11.82;;;6.70;;
47764;SDS011;33529;49.242;8.670;2022-11-12T16:42:08;16.52;;;7.32;;
47764;SDS011;33529;49.242;8.670;2022-11-12T16:44:55;13.23;;;7.75;;
47764;SDS011;33529;49.242;8.670;2022-11-12T16:47:47;14.63;;;7.43;;
47764;SDS011;33529;49.242;8.670;2022-11-12T16:50:34;13.60;;;7.45;;
47764;SDS011;33529;49.242;8.670;2022-11-12T16:53:19;11.85;;;7.50;;
47764;SDS011;33529;49.242;8.670;2022-11-12T16:56:07;12.07;;;6.75;;
47764;SDS011;33529;49.242;8.670;2022-11-12T16:58:55;10.93;;;5.88;;
47764;SDS011;33529;49.242;8.670;2022-11-12T17:01:40;13.30;;;7.88;;
47764;SDS011;33529;49.242;8.670;2022-11-12T17:04:27;12.30;;;7.22;;
47764;SDS011;33529;49.242;8.670;2022-11-12T17:07:13;13.00;;;7.50;;
47764;SDS011;33529;49.242;8.670;2022-11-12T17:09:58;14.55;;;8.43;;
47764;SDS011;33529;49.242;8.670;2022-11-12T17:12:46;11.95;;;6.35;;
47764;SDS011;33529;49.242;8.670;2022-11-12T17:15:32;12.88;;;7.18;;
47764;SDS011;33529;49.242;8.670;2022-11-12T17:18:17;16.85;;;8.52;;
47764;SDS011;33529;49.242;8.670;2022-11-12T17:21:07;13.32;;;6.90;;
47764;SDS011;33529;49.242;8.670;2022-11-12T17:23:54;11.13;;;6.90;;
47764;SDS011;33529;49.242;8.670;2022-11-12T17:26:41;13.88;;;6.88;;
47764;SDS011;33529;49.242;8.670;2022-11-12T17:29:27;10.93;;;6.18;;
47764;SDS011;33529;49.242;8.670;2022-11-12T17:32:13;9.48;;;6.72;;
47764;SDS011;33529;49.242;8.670;2022-11-12T17:34:58;11.73;;;6.95;;
47764;SDS011;33529;49.242;8.670;2022-11-12T17:37:43;9.60;;;6.20;;
47764;SDS011;33529;49.242;8.670;2022-11-12T17:40:29;13.30;;;7.45;;
47764;SDS011;33529;49.242;8.670;2022-11-12T17:43:14;13.40;;;6.93;;
47764;SDS011;33529;49.242;8.670;2022-11-12T17:45:59;11.40;;;6.63;;
47764;SDS011;33529;49.242;8.670;2022-11-12T17:48:45;14.85;;;8.05;;
47764;SDS011;33529;49.242;8.670;2022-11-12T17:51:30;10.65;;;6.43;;
47764;SDS011;33529;49.242;8.670;2022-11-12T17:54:15;10.93;;;6.65;;
47764;SDS011;33529;49.242;8.670;2022-11-12T17:57:02;9.52;;;6.05;;
47764;SDS011;33529;49.242;8.670;2022-11-12T17:59:47;8.50;;;5.63;;
47764;SDS011;33529;49.242;8.670;2022-11-12T18:02:33;8.65;;;5.53;;
47764;SDS011;33529;49.242;8.670;2022-11-12T18:05:18;9.98;;;5.68;;
47764;SDS011;33529;49.242;8.670;2022-11-12T18:08:04;12.13;;;6.32;;
47764;SDS011;33529;49.242;8.670;2022-11-12T18:10:49;10.23;;;6.32;;
47764;SDS011;33529;49.242;8.670;2022-11-12T18:13:36;10.18;;;6.10;;
47764;SDS011;33529;49.242;8.670;2022-11-12T18:16:28;8.60;;;4.93;;
47764;SDS011;33529;49.242;8.670;2022-11-12T18:19:14;11.25;;;7.85;;
47764;SDS011;33529;49.242;8.670;2022-11-12T18:22:00;9.32;;;5.18;;
47764;SDS011;33529;49.242;8.670;2022-11-12T18:24:46;9.00;;;6.22;;
47764;SDS011;33529;49.242;8.670;2022-11-12T18:27:34;14.93;;;7.57;;
47764;SDS011;33529;49.242;8.670;2022-11-12T18:30:19;15.57;;;9.93;;
47764;SDS011;33529;49.242;8.670;2022-11-12T18:33:05;10.77;;;6.10;;
47764;SDS011;33529;49.242;8.670;2022-11-12T18:36:03;8.25;;;5.13;;
47764;SDS011;33529;49.242;8.670;2022-11-12T18:38:51;8.80;;;5.22;;
47764;SDS011;33529;49.242;8.670;2022-11-12T18:41:38;7.38;;;5.50;;
47764;SDS011;33529;49.242;8.670;2022-11-12T18:44:23;8.43;;;4.97;;
47764;SDS011;33529;49.242;8.670;2022-11-12T18:47:10;10.27;;;5.60;;
47764;SDS011;33529;49.242;8.670;2022-11-12T18:49:55;8.43;;;5.22;;